createdAt,value
2019-01-27T00:04:32.652Z,287.33
2019-01-27T00:07:23.577Z,287.63
2019-01-27T00:13:30.101Z,294.57
2019-01-27T00:17:00.536Z,311.77
2019-01-27T00:19:51.829Z,288.70
2019-01-27T00:22:43.204Z,300.90
2019-01-27T00:25:34.127Z,305.07
2019-01-27T00:28:25.058Z,309.50
2019-01-27T00:31:54.944Z,305.27
2019-01-27T00:34:46.086Z,289.73
2019-01-27T00:37:37.147Z,280.63
2019-01-27T00:43:29.668Z,301.17
2019-01-27T00:46:13.680Z,290.67
2019-01-27T00:49:04.444Z,295.37
2019-01-27T00:52:34.443Z,290.87
2019-01-27T00:55:39.535Z,267.97
2019-01-27T00:58:30.234Z,276.40
2019-01-27T01:01:10.840Z,269.80
2019-01-27T01:07:31.594Z,281.93
2019-01-27T01:11:02.059Z,310.30
2019-01-27T01:14:12.328Z,274.27
2019-01-27T01:20:01.520Z,272.27
2019-01-27T01:22:53.575Z,253.23
2019-01-27T01:26:23.416Z,296.97
2019-01-27T01:29:53.231Z,268.77
2019-01-27T01:36:40.121Z,254.33
2019-01-27T01:39:31.844Z,249.33
2019-01-27T01:42:22.773Z,281.20
2019-01-27T01:45:09.191Z,278.57
2019-01-27T01:51:55.545Z,265.33
2019-01-27T01:54:46.473Z,274.77
2019-01-27T01:57:37.825Z,294.07
2019-01-27T02:01:08.280Z,303.50
2019-01-27T02:03:59.220Z,275.33
2019-01-27T02:06:50.082Z,290.03
2019-01-27T02:09:40.929Z,286.93
2019-01-27T02:13:11.139Z,277.47
2019-01-27T02:22:31.709Z,296.67
2019-01-27T02:26:01.732Z,291.80
2019-01-27T02:28:53.191Z,283.33
2019-01-27T02:31:48.041Z,288.53
2019-01-27T02:34:39.050Z,303.03
2019-01-27T02:37:50.848Z,317.07
2019-01-27T02:41:20.833Z,256.20
2019-01-27T02:44:23.050Z,288.77
2019-01-27T02:47:06.453Z,289.07
2019-01-27T02:50:16.182Z,307.20
2019-01-27T02:56:37.327Z,279.90
2019-01-27T03:02:29.577Z,302.67
2019-01-27T03:05:39.192Z,291.97
2019-01-27T03:15:41.386Z,258.13
2019-01-27T03:22:40.655Z,272.87
2019-01-27T03:25:31.589Z,245.53
2019-01-27T03:29:01.855Z,256.37
2019-01-27T03:31:53.326Z,226.30
2019-01-27T03:34:56.475Z,222.33
2019-01-27T03:37:36.703Z,249.40
2019-01-27T03:40:27.831Z,245.00
2019-01-27T03:43:57.820Z,247.97
2019-01-27T03:46:42.414Z,181.60
2019-01-27T03:50:12.426Z,269.83
2019-01-27T03:56:00.771Z,204.67
2019-01-27T03:58:51.940Z,178.63
2019-01-27T04:04:40.489Z,164.17
2019-01-27T04:07:32.442Z,139.10
2019-01-27T04:13:53.400Z,124.47
2019-01-27T04:16:58.783Z,139.77
2019-01-27T04:23:13.846Z,88.83
2019-01-27T04:26:04.849Z,92.00
2019-01-27T04:28:55.772Z,89.03
2019-01-27T04:32:26.022Z,88.13
2019-01-27T04:35:16.894Z,71.77
2019-01-27T04:41:24.439Z,56.60
2019-01-27T04:44:16.194Z,68.30
2019-01-27T04:47:01.435Z,56.57
2019-01-27T04:53:47.728Z,55.67
2019-01-27T04:56:59.697Z,52.40
2019-01-27T04:59:51.583Z,47.10
2019-01-27T05:03:21.862Z,49.57
2019-01-27T05:09:23.366Z,54.40
2019-01-27T05:12:33.342Z,53.97
2019-01-27T05:21:44.015Z,59.03
2019-01-27T05:24:34.991Z,72.53
2019-01-27T05:31:36.749Z,46.87
2019-01-27T05:34:27.670Z,55.53
2019-01-27T05:40:29.191Z,101.80
2019-01-27T05:43:20.364Z,86.27
2019-01-27T05:46:04.236Z,86.40
2019-01-27T05:48:55.916Z,131.50
2019-01-27T05:51:48.254Z,126.97
2019-01-27T05:54:39.145Z,128.93
2019-01-27T05:57:29.973Z,136.60
2019-01-27T06:03:25.399Z,133.43
2019-01-27T06:06:16.358Z,122.53
2019-01-27T06:09:10.726Z,128.93
2019-01-27T06:12:41.552Z,113.53
2019-01-27T06:19:28.434Z,115.57
2019-01-27T06:22:19.648Z,114.77
2019-01-27T06:25:30.734Z,93.10
2019-01-27T06:28:21.549Z,132.03
2019-01-27T06:31:12.571Z,139.60
2019-01-27T06:34:22.002Z,143.43
2019-01-27T06:37:13.780Z,136.97
2019-01-27T06:40:25.945Z,135.10
2019-01-27T06:43:16.896Z,126.37
2019-01-27T06:46:00.149Z,111.77
2019-01-27T06:48:51.451Z,135.50
2019-01-27T06:51:42.418Z,42.40
2019-01-27T06:54:33.997Z,14.77
2019-01-27T06:58:04.266Z,16.90
2019-01-27T07:01:14.088Z,11.67
2019-01-27T07:04:24.355Z,17.03
2019-01-27T07:11:10.741Z,15.03
2019-01-27T07:14:21.624Z,14.57
2019-01-27T07:17:31.102Z,14.47
2019-01-27T07:20:41.113Z,13.70
2019-01-27T07:23:39.819Z,12.73
2019-01-27T07:27:08.057Z,12.83
2019-01-27T07:33:47.308Z,11.27
2019-01-27T07:40:35.116Z,13.60
2019-01-27T07:44:04.794Z,12.17
2019-01-27T07:47:02.684Z,15.07
2019-01-27T07:53:30.605Z,11.97
2019-01-27T07:57:00.826Z,13.30
2019-01-27T08:03:30.777Z,14.03
2019-01-27T08:06:39.613Z,14.13
2019-01-27T08:09:48.573Z,14.70
2019-01-27T08:12:57.815Z,13.27
2019-01-27T08:16:06.802Z,14.03
2019-01-27T08:22:20.751Z,14.17
2019-01-27T08:28:46.402Z,15.30
2019-01-27T08:31:53.455Z,13.73
2019-01-27T08:35:02.705Z,12.60
2019-01-27T08:41:46.814Z,9.97
2019-01-27T08:44:55.968Z,10.77
2019-01-27T08:47:38.405Z,8.90
2019-01-27T08:51:07.992Z,10.43
2019-01-27T08:53:57.939Z,9.40
2019-01-27T08:56:48.008Z,9.43
2019-01-27T08:59:38.862Z,9.13
2019-01-27T09:03:08.685Z,9.00
2019-01-27T09:10:02.071Z,8.00
2019-01-27T09:13:11.431Z,7.53
2019-01-27T09:16:41.196Z,8.90
2019-01-27T09:19:49.962Z,8.87
2019-01-27T09:22:58.681Z,9.50
2019-01-27T09:26:07.435Z,10.27
2019-01-27T09:29:17.067Z,11.50
2019-01-27T09:32:26.744Z,10.50
2019-01-27T09:35:35.585Z,11.47
2019-01-27T09:38:44.383Z,11.17
2019-01-27T09:41:53.350Z,13.30
2019-01-27T09:45:02.414Z,15.30
2019-01-27T09:48:12.160Z,14.10
2019-01-27T09:51:20.980Z,14.43
2019-01-27T09:54:18.192Z,14.23
2019-01-27T10:00:43.350Z,14.27
2019-01-27T10:03:34.602Z,19.37
2019-01-27T10:06:42.739Z,19.40
2019-01-27T10:09:51.473Z,19.77
2019-01-27T10:13:00.249Z,16.57
2019-01-27T10:16:09.828Z,20.37
2019-01-27T10:19:19.016Z,21.60
2019-01-27T10:22:27.854Z,29.73
2019-01-27T10:29:12.053Z,26.30
2019-01-27T10:32:21.353Z,23.97
2019-01-27T10:35:30.221Z,30.17
2019-01-27T10:38:39.155Z,30.07
2019-01-27T10:41:47.983Z,32.70
2019-01-27T10:44:57.329Z,27.60
2019-01-27T10:48:26.938Z,27.63
2019-01-27T10:51:36.764Z,23.70
2019-01-27T10:54:45.510Z,24.00
2019-01-27T10:57:42.498Z,25.67
2019-01-27T11:00:51.528Z,26.97
2019-01-27T11:04:20.052Z,31.47
2019-01-27T11:07:18.025Z,25.03
2019-01-27T11:10:27.906Z,34.33
2019-01-27T11:13:35.621Z,25.13
2019-01-27T11:20:10.504Z,25.50
2019-01-27T11:23:19.312Z,26.47
2019-01-27T11:26:28.100Z,28.97
2019-01-27T11:29:37.470Z,26.37
2019-01-27T11:33:05.753Z,30.37
2019-01-27T11:36:14.623Z,26.13
2019-01-27T11:39:42.685Z,25.03
2019-01-27T11:42:42.057Z,23.33
2019-01-27T11:45:43.277Z,23.13
2019-01-27T11:48:52.053Z,23.43
2019-01-27T11:52:01.356Z,23.70
2019-01-27T11:54:52.403Z,23.73
2019-01-27T12:01:12.504Z,23.67
2019-01-27T12:13:32.812Z,20.77
2019-01-27T12:16:42.453Z,20.53
2019-01-27T12:23:40.537Z,15.67
2019-01-27T12:27:10.156Z,15.63
2019-01-27T12:40:22.730Z,17.80
2019-01-27T12:43:52.529Z,15.20
2019-01-27T12:46:36.038Z,15.77
2019-01-27T12:59:17.500Z,25.53
2019-01-27T13:05:25.465Z,25.63
2019-01-27T13:08:16.507Z,28.23
2019-01-27T13:11:46.191Z,30.17
2019-01-27T13:18:45.925Z,23.87
2019-01-27T13:24:53.075Z,21.57
2019-01-27T13:27:46.150Z,22.17
2019-01-27T13:30:56.144Z,22.10
2019-01-27T13:37:29.768Z,16.67
2019-01-27T13:40:10.820Z,22.00
2019-01-27T13:43:01.491Z,20.13
2019-01-27T13:45:44.505Z,22.60
2019-01-27T13:48:34.885Z,27.37
2019-01-27T13:51:25.458Z,24.17
2019-01-27T13:54:16.948Z,21.33
2019-01-27T13:57:07.310Z,27.83
2019-01-27T13:59:58.330Z,30.50
2019-01-27T14:02:48.414Z,28.23
2019-01-27T14:05:45.610Z,39.20
2019-01-27T14:09:18.738Z,35.40
2019-01-27T14:16:06.118Z,27.87
2019-01-27T14:18:57.450Z,22.53
2019-01-27T14:22:28.906Z,28.07
2019-01-27T14:25:21.288Z,26.63
2019-01-27T14:28:12.339Z,28.50
2019-01-27T14:31:14.697Z,28.33
2019-01-27T14:33:55.107Z,24.00
2019-01-27T14:36:45.302Z,27.33
2019-01-27T14:39:35.693Z,24.93
2019-01-27T14:45:34.463Z,18.10
2019-01-27T14:48:25.391Z,20.87
2019-01-27T14:51:57.129Z,17.13
2019-01-27T14:54:47.217Z,26.63
2019-01-27T14:57:38.287Z,19.67
2019-01-27T15:00:49.326Z,19.23
2019-01-27T15:03:39.702Z,16.53
2019-01-27T15:06:49.917Z,18.07
2019-01-27T15:09:39.954Z,18.67
2019-01-27T15:12:49.975Z,22.17
2019-01-27T15:15:41.495Z,17.57
2019-01-27T15:18:34.043Z,17.37
2019-01-27T15:21:27.344Z,20.07
2019-01-27T15:24:36.376Z,18.13
2019-01-27T15:27:26.515Z,19.57
2019-01-27T15:30:38.143Z,20.17
2019-01-27T15:33:28.672Z,22.23
2019-01-27T15:36:32.752Z,17.43
2019-01-27T15:42:26.831Z,16.73
2019-01-27T15:45:11.048Z,15.97
2019-01-27T15:51:18.254Z,15.33
2019-01-27T15:54:10.419Z,16.40
2019-01-27T15:57:00.581Z,13.90
2019-01-27T16:03:06.861Z,13.97
2019-01-27T16:06:36.831Z,12.50
2019-01-27T16:09:27.026Z,15.07
2019-01-27T16:25:38.716Z,13.37
2019-01-27T16:28:30.140Z,15.43
2019-01-27T16:31:40.840Z,13.67
2019-01-27T16:35:10.833Z,14.53
2019-01-27T16:41:31.889Z,37.77
2019-01-27T16:47:31.711Z,40.77
2019-01-27T16:50:59.631Z,38.00
2019-01-27T16:53:50.485Z,41.20
2019-01-27T16:59:56.556Z,43.13
2019-01-27T17:03:26.469Z,43.57
2019-01-27T17:09:33.379Z,46.57
2019-01-27T17:15:59.428Z,41.50
2019-01-27T17:19:31.098Z,40.03
2019-01-27T17:22:21.319Z,38.17
2019-01-27T17:25:13.306Z,36.70
2019-01-27T17:28:22.866Z,37.57
2019-01-27T17:31:13.028Z,36.77
2019-01-27T17:34:22.629Z,39.47
2019-01-27T17:37:25.097Z,37.67
2019-01-27T17:43:22.052Z,36.20
2019-01-27T17:46:05.894Z,33.27
2019-01-27T17:52:05.678Z,34.27
2019-01-27T17:54:55.683Z,40.90
2019-01-27T17:58:04.496Z,46.17
2019-01-27T18:01:13.320Z,43.73
2019-01-27T18:04:13.678Z,40.73
2019-01-27T18:07:20.343Z,44.07
2019-01-27T18:10:51.185Z,39.20
2019-01-27T18:14:00.495Z,38.53
2019-01-27T18:16:50.940Z,47.47
2019-01-27T18:19:41.497Z,48.87
2019-01-27T18:22:31.495Z,47.17
2019-01-27T18:25:21.639Z,51.33
2019-01-27T18:28:51.900Z,58.27
2019-01-27T18:31:43.167Z,49.57
2019-01-27T18:34:33.273Z,62.53
2019-01-27T18:38:03.757Z,95.57
2019-01-27T18:40:53.847Z,71.40
2019-01-27T18:43:45.449Z,96.73
2019-01-27T18:46:28.380Z,110.17
2019-01-27T18:49:20.161Z,130.10
2019-01-27T18:52:11.530Z,117.17
2019-01-27T18:58:09.125Z,132.17
2019-01-27T19:01:18.769Z,115.30
2019-01-27T19:10:48.760Z,133.57
2019-01-27T19:13:55.670Z,136.10
2019-01-27T19:17:05.410Z,129.07
2019-01-27T19:20:02.058Z,153.03
2019-01-27T19:23:10.550Z,167.60
2019-01-27T19:26:08.802Z,149.10
2019-01-27T19:29:18.107Z,147.23
2019-01-27T19:32:40.184Z,144.90
2019-01-27T19:35:58.827Z,135.87
2019-01-27T19:39:22.308Z,112.07
2019-01-27T19:42:19.591Z,123.23
2019-01-27T19:45:49.682Z,122.97
2019-01-27T19:48:58.951Z,121.57
2019-01-27T19:52:07.894Z,117.97
2019-01-27T19:55:16.708Z,131.50
2019-01-27T20:02:16.210Z,129.33
2019-01-27T20:05:46.439Z,124.40
2019-01-27T20:08:55.371Z,126.87
2019-01-27T20:12:25.676Z,157.47
2019-01-27T20:16:10.760Z,169.40
2019-01-27T20:19:27.132Z,158.53
2019-01-27T20:22:36.602Z,161.53
2019-01-27T20:25:46.637Z,188.80
2019-01-27T20:28:56.605Z,190.83
2019-01-27T20:35:04.193Z,247.80
2019-01-27T20:38:14.201Z,147.03
2019-01-27T20:41:42.879Z,242.37
2019-01-27T20:45:12.496Z,199.40
2019-01-27T20:48:14.517Z,189.57
2019-01-27T20:51:23.744Z,203.33
2019-01-27T20:54:33.112Z,173.70
2019-01-27T21:07:13.608Z,98.67
2019-01-27T21:10:13.112Z,96.80
2019-01-27T21:13:43.025Z,151.17
2019-01-27T21:16:52.518Z,113.23
2019-01-27T21:19:49.527Z,144.13
2019-01-27T21:23:19.016Z,79.50
2019-01-27T21:26:10.312Z,45.30
2019-01-27T21:29:00.398Z,69.17
2019-01-27T21:37:45.958Z,28.50
2019-01-27T21:43:47.745Z,24.70
2019-01-27T21:46:32.166Z,27.27
2019-01-27T21:49:23.182Z,27.07
2019-01-27T21:52:13.715Z,28.43
2019-01-27T21:58:35.584Z,33.07
2019-01-27T22:02:06.094Z,39.40
2019-01-27T22:08:08.932Z,35.70
2019-01-27T22:10:59.835Z,33.60
2019-01-27T22:17:07.872Z,36.07
2019-01-27T22:19:58.678Z,31.83
2019-01-27T22:22:50.150Z,32.20
2019-01-27T22:25:41.168Z,32.20
2019-01-27T22:28:32.134Z,28.67
2019-01-27T22:31:23.024Z,28.40
2019-01-27T22:34:13.756Z,31.97
2019-01-27T22:37:04.979Z,33.07
2019-01-27T22:39:55.748Z,33.13
2019-01-27T22:42:46.656Z,35.30
2019-01-27T22:48:52.271Z,35.37
2019-01-27T22:51:39.651Z,34.23
2019-01-27T22:54:30.853Z,36.43
2019-01-27T22:57:21.681Z,35.23
2019-01-27T23:03:43.930Z,33.17
2019-01-27T23:06:34.812Z,32.90
2019-01-27T23:09:25.960Z,36.60
2019-01-27T23:12:16.916Z,32.40
2019-01-27T23:15:07.980Z,33.83
2019-01-27T23:17:59.512Z,34.80
2019-01-27T23:21:04.529Z,34.17
2019-01-27T23:23:43.584Z,40.23
2019-01-27T23:26:47.052Z,38.60
2019-01-27T23:32:24.856Z,36.93
2019-01-27T23:35:15.646Z,42.47
2019-01-27T23:38:06.828Z,41.93
2019-01-27T23:40:57.801Z,40.77
2019-01-27T23:44:27.511Z,42.07
2019-01-27T23:47:11.008Z,40.93
2019-01-27T23:50:02.444Z,43.53
2019-01-27T23:57:02.286Z,38.97
2019-01-27T23:59:53.170Z,40.57
